Time;durP1;ratioP1;P1;durP2;ratioP2;P2;SDS_P1;SDS_P2;PMS_P1;PMS_P2;Temp;Humidity;BMP_temperature;BMP_pressure;BME280_temperature;BME280_humidity;BME280_pressure;Samples;Min_cycle;Max_cycle;Signal;HPM_P1;HPM_P2
2022/08/16 00:01:13;;;;;;;13.90;12.80;;;22.30;99.90;;;;;;5094362;28;20541;-59
2022/08/16 00:03:39;;;;;;;13.60;12.50;;;22.30;99.90;;;;;;5094259;28;20541;-59
2022/08/16 00:06:06;;;;;;;14.73;13.50;;;22.30;99.90;;;;;;5094386;28;20973;-58
2022/08/16 00:08:34;;;;;;;14.00;12.70;;;22.30;99.90;;;;;;5094362;28;20805;-59
2022/08/16 00:11:00;;;;;;;12.93;11.93;;;22.40;99.90;;;;;;5094286;28;20821;-59
2022/08/16 00:13:28;;;;;;;13.87;12.47;;;22.40;99.90;;;;;;5094217;28;20449;-59
2022/08/16 00:15:54;;;;;;;15.47;14.13;;;22.40;99.90;;;;;;5093995;28;20501;-59
2022/08/16 00:18:21;;;;;;;15.70;14.30;;;22.40;99.90;;;;;;5093886;28;20442;-59
2022/08/16 00:20:48;;;;;;;14.13;12.83;;;22.40;99.90;;;;;;5094121;28;20447;-59
2022/08/16 00:23:15;;;;;;;14.80;13.57;;;22.30;99.90;;;;;;5094018;28;20537;-59
2022/08/16 00:25:43;;;;;;;14.77;13.23;;;22.00;99.90;;;;;;5093966;28;20446;-59
2022/08/16 00:28:10;;;;;;;15.33;14.10;;;22.00;99.90;;;;;;5093889;28;20533;-59
2022/08/16 00:30:38;;;;;;;14.87;13.67;;;22.00;99.90;;;;;;5093697;28;20946;-59
2022/08/16 00:33:04;;;;;;;14.53;13.33;;;22.00;99.90;;;;;;5093948;28;20485;-59
2022/08/16 00:35:34;;;;;;;15.03;13.90;;;22.10;99.90;;;;;;5093760;28;20497;-59
2022/08/16 00:38:02;;;;;;;14.30;13.17;;;22.10;99.90;;;;;;5093786;28;20533;-59
2022/08/16 00:40:37;;;;;;;16.83;15.23;;;22.10;99.90;;;;;;5094047;28;20458;-59
2022/08/16 00:43:09;;;;;;;15.63;14.23;;;22.10;99.90;;;;;;5093645;28;20446;-59
2022/08/16 00:45:39;;;;;;;14.80;13.50;;;22.10;99.90;;;;;;5093748;28;20478;-59
2022/08/16 00:48:08;;;;;;;17.30;14.80;;;22.10;99.90;;;;;;5093459;28;20510;-59
2022/08/16 00:50:38;;;;;;;15.70;14.50;;;21.60;99.90;;;;;;5093405;28;20557;-59
2022/08/16 00:53:05;;;;;;;18.60;15.73;;;21.20;99.90;;;;;;5093507;28;20446;-59
2022/08/16 00:55:32;;;;;;;16.77;15.20;;;21.00;99.90;;;;;;5093220;28;20488;-63
2022/08/16 00:57:58;;;;;;;16.70;15.30;;;20.90;99.90;;;;;;5093523;28;20478;-59
2022/08/16 01:00:28;;;;;;;16.13;14.33;;;21.00;99.90;;;;;;5093479;28;20446;-59
2022/08/16 01:02:56;;;;;;;15.93;14.40;;;21.10;99.90;;;;;;5093424;28;20464;-58
2022/08/16 01:05:24;;;;;;;15.50;14.20;;;21.20;99.90;;;;;;5093391;28;20457;-59
2022/08/16 01:07:51;;;;;;;17.13;15.53;;;21.30;99.90;;;;;;5093227;28;20856;-59
2022/08/16 01:10:17;;;;;;;16.90;15.40;;;20.90;99.90;;;;;;5093153;28;20473;-58
2022/08/16 01:12:44;;;;;;;15.70;14.30;;;20.90;99.90;;;;;;5093128;28;20929;-58
2022/08/16 01:15:11;;;;;;;16.07;14.70;;;21.00;99.90;;;;;;5093233;28;20547;-59
2022/08/16 01:17:41;;;;;;;15.90;14.50;;;21.00;99.90;;;;;;5093196;28;20447;-59
2022/08/16 01:20:11;;;;;;;16.10;14.70;;;21.10;99.90;;;;;;5093120;28;20453;-59
2022/08/16 01:22:47;;;;;;;15.10;13.87;;;21.10;99.90;;;;;;5093007;28;20450;-59
2022/08/16 01:25:19;;;;;;;18.20;14.00;;;21.00;99.90;;;;;;5093004;28;20937;-59
2022/08/16 01:27:50;;;;;;;15.03;13.70;;;20.80;99.90;;;;;;5093204;28;20450;-58
2022/08/16 01:30:20;;;;;;;15.10;13.77;;;20.70;99.90;;;;;;5093277;28;20447;-59
2022/08/16 01:32:47;;;;;;;15.80;14.30;;;20.60;99.90;;;;;;5092971;28;20914;-58
2022/08/16 01:35:18;;;;;;;17.47;15.80;;;20.60;99.90;;;;;;5092822;28;20473;-58
2022/08/16 01:37:48;;;;;;;15.53;13.93;;;20.50;99.90;;;;;;5093133;28;20453;-58
2022/08/16 01:40:19;;;;;;;14.10;12.80;;;20.50;99.90;;;;;;5093017;28;20447;-59
2022/08/16 01:42:47;;;;;;;15.03;13.73;;;20.50;99.90;;;;;;5092969;28;20447;-58
2022/08/16 01:45:15;;;;;;;15.57;14.10;;;20.60;99.90;;;;;;5092872;28;20452;-59
2022/08/16 01:47:42;;;;;;;15.20;13.70;;;20.60;99.90;;;;;;5092495;28;20517;-59
2022/08/16 01:50:09;;;;;;;16.17;14.70;;;20.50;99.90;;;;;;5092989;28;20466;-59
2022/08/16 01:52:36;;;;;;;16.20;14.80;;;20.40;99.90;;;;;;5092924;28;20529;-59
2022/08/16 01:55:05;;;;;;;16.23;14.83;;;20.30;99.90;;;;;;5092752;28;20442;-59
2022/08/16 01:57:33;;;;;;;18.17;16.30;;;20.30;99.90;;;;;;5092841;28;21014;-58
2022/08/16 01:59:59;;;;;;;17.30;15.60;;;20.00;99.90;;;;;;5092611;28;20450;-59
2022/08/16 02:02:26;;;;;;;18.10;16.40;;;19.70;99.90;;;;;;5093597;28;20452;-59
2022/08/16 02:04:53;;;;;;;18.77;16.97;;;19.50;99.90;;;;;;5096746;28;20446;-58
2022/08/16 02:07:21;;;;;;;19.83;17.93;;;19.20;99.90;;;;;;5096653;28;20446;-58
2022/08/16 02:09:48;;;;;;;17.60;16.00;;;19.10;99.90;;;;;;5096630;28;20450;-58
2022/08/16 02:12:15;;;;;;;20.10;16.33;;;19.10;99.90;;;;;;5096555;28;20442;-58
2022/08/16 02:14:43;;;;;;;17.27;15.67;;;19.20;99.90;;;;;;5096396;28;20937;-59
2022/08/16 02:17:11;;;;;;;15.77;14.40;;;19.40;99.90;;;;;;5096209;28;20531;-58
2022/08/16 02:19:42;;;;;;;15.73;14.10;;;19.60;99.90;;;;;;5096524;28;20446;-59
2022/08/16 02:22:12;;;;;;;18.13;16.47;;;19.80;99.90;;;;;;5096383;28;20454;-59
2022/08/16 02:24:39;;;;;;;18.67;16.87;;;19.50;99.90;;;;;;5096307;28;20625;-58
2022/08/16 02:27:06;;;;;;;19.10;17.27;;;19.40;99.90;;;;;;5096214;28;20449;-58
2022/08/16 02:29:33;;;;;;;18.13;16.47;;;19.20;99.90;;;;;;5096034;28;20537;-58
2022/08/16 02:32:00;;;;;;;17.87;15.97;;;19.30;99.90;;;;;;5096312;28;20801;-59
2022/08/16 02:34:27;;;;;;;18.97;17.07;;;19.20;99.90;;;;;;5096155;28;20801;-59
2022/08/16 02:36:53;;;;;;;18.00;16.30;;;19.10;99.90;;;;;;5096013;28;20484;-58
2022/08/16 02:39:20;;;;;;;16.80;15.20;;;19.20;99.90;;;;;;5096010;28;20446;-59
2022/08/16 02:41:48;;;;;;;19.00;15.50;;;19.40;99.90;;;;;;5095878;28;20457;-59
2022/08/16 02:44:14;;;;;;;16.80;15.27;;;19.50;99.90;;;;;;5096069;28;20460;-59
2022/08/16 02:46:42;;;;;;;16.37;14.67;;;19.70;99.90;;;;;;5095808;28;20875;-59
2022/08/16 02:49:10;;;;;;;16.53;15.13;;;19.80;99.90;;;;;;5095937;28;20454;-58
2022/08/16 02:51:37;;;;;;;15.90;14.40;;;19.90;99.90;;;;;;5095786;28;20541;-58
2022/08/16 02:54:05;;;;;;;14.97;13.53;;;20.00;99.90;;;;;;5095696;28;20447;-59
2022/08/16 02:56:32;;;;;;;15.60;14.27;;;20.20;99.90;;;;;;5095457;28;20581;-58
2022/08/16 02:58:58;;;;;;;15.17;13.87;;;20.30;99.90;;;;;;5095799;28;20443;-58
2022/08/16 03:01:29;;;;;;;15.13;13.90;;;20.30;99.90;;;;;;5095700;28;20537;-59
2022/08/16 03:03:58;;;;;;;15.70;14.30;;;20.40;99.90;;;;;;5095612;28;20450;-59
2022/08/16 03:06:27;;;;;;;13.80;12.40;;;20.50;99.90;;;;;;5095520;28;20478;-58
2022/08/16 03:08:54;;;;;;;14.97;13.67;;;20.60;99.90;;;;;;5095311;28;20485;-59
2022/08/16 03:11:22;;;;;;;14.13;12.93;;;20.60;99.90;;;;;;5095599;28;20457;-59
2022/08/16 03:13:51;;;;;;;15.43;14.07;;;20.60;99.90;;;;;;5094179;28;20577;-59
2022/08/16 03:16:18;;;;;;;15.00;13.57;;;20.40;99.90;;;;;;5095272;28;20573;-59
2022/08/16 03:18:45;;;;;;;14.00;12.80;;;20.30;99.90;;;;;;5095278;28;20543;-58
2022/08/16 03:21:11;;;;;;;14.40;13.03;;;20.40;99.90;;;;;;5095192;28;20446;-59
2022/08/16 03:23:40;;;;;;;12.63;11.53;;;20.40;99.90;;;;;;5095105;28;20454;-59
2022/08/16 03:26:07;;;;;;;12.60;11.60;;;20.50;99.90;;;;;;5095188;28;20489;-59
2022/08/16 03:28:34;;;;;;;13.00;11.90;;;20.30;99.90;;;;;;5095158;28;20450;-58
2022/08/16 03:31:01;;;;;;;13.30;12.20;;;20.20;99.90;;;;;;5095073;28;20583;-58
2022/08/16 03:33:27;;;;;;;14.30;13.00;;;20.00;99.90;;;;;;5095411;28;20528;-58
2022/08/16 03:35:58;;;;;;;13.77;12.47;;;19.70;99.90;;;;;;5094878;28;20476;-59
2022/08/16 03:38:25;;;;;;;14.83;13.47;;;19.70;99.90;;;;;;5095104;28;20446;-59
2022/08/16 03:40:54;;;;;;;17.33;15.67;;;19.30;99.90;;;;;;5095001;28;20455;-59
2022/08/16 03:43:22;;;;;;;15.53;13.23;;;19.00;99.90;;;;;;5094882;28;20449;-58
2022/08/16 03:45:50;;;;;;;19.47;16.30;;;19.10;99.90;;;;;;5094767;28;20451;-58
2022/08/16 03:48:16;;;;;;;15.63;14.30;;;19.00;99.90;;;;;;5094502;28;20481;-59
2022/08/16 03:50:43;;;;;;;16.17;14.60;;;18.90;99.90;;;;;;5094474;28;20446;-59
2022/08/16 03:53:09;;;;;;;16.27;14.57;;;18.70;99.90;;;;;;5094656;28;20447;-58
2022/08/16 03:55:36;;;;;;;18.20;16.60;;;18.60;99.90;;;;;;5094430;28;20557;-58
2022/08/16 03:58:04;;;;;;;16.40;14.80;;;18.60;99.90;;;;;;5094487;28;20538;-58
2022/08/16 04:00:31;;;;;;;17.47;15.37;;;18.60;99.90;;;;;;5094423;28;20460;-58
2022/08/16 04:03:01;;;;;;;17.00;15.20;;;18.60;99.90;;;;;;5094301;28;20534;-59
2022/08/16 04:05:28;;;;;;;18.40;16.00;;;18.70;99.90;;;;;;5094478;28;20447;-58
2022/08/16 04:07:55;;;;;;;15.67;14.07;;;18.70;99.90;;;;;;5094424;28;20455;-59
2022/08/16 04:10:21;;;;;;;16.47;14.90;;;18.80;99.90;;;;;;5094284;28;20545;-59
2022/08/16 04:12:48;;;;;;;15.83;14.53;;;19.00;99.90;;;;;;5094199;28;20460;-59
2022/08/16 04:15:17;;;;;;;16.40;14.90;;;19.20;99.90;;;;;;5094218;28;20444;-59
2022/08/16 04:17:44;;;;;;;18.03;16.43;;;19.30;99.90;;;;;;5093945;28;20478;-59
2022/08/16 04:20:12;;;;;;;16.90;15.37;;;19.50;99.90;;;;;;5094169;28;20822;-59
2022/08/16 04:22:39;;;;;;;16.70;15.10;;;19.60;99.90;;;;;;5094075;28;20447;-59
2022/08/16 04:25:06;;;;;;;16.20;14.77;;;19.80;99.90;;;;;;5093841;28;20883;-59
2022/08/16 04:27:33;;;;;;;15.43;13.97;;;19.90;99.90;;;;;;5093898;28;20787;-58
2022/08/16 04:30:00;;;;;;;14.67;13.50;;;19.70;99.90;;;;;;5093905;28;20585;-58
2022/08/16 04:32:28;;;;;;;15.87;14.47;;;19.70;99.90;;;;;;5093620;28;20540;-59
2022/08/16 04:34:54;;;;;;;17.00;15.40;;;19.80;99.90;;;;;;5093836;28;20503;-59
2022/08/16 04:37:21;;;;;;;16.10;14.70;;;19.90;99.90;;;;;;5093397;28;20997;-58
2022/08/16 04:39:47;;;;;;;15.70;14.23;;;20.00;99.90;;;;;;5093701;28;20817;-59
2022/08/16 04:42:16;;;;;;;14.90;13.57;;;20.20;99.90;;;;;;5093648;28;20447;-58
2022/08/16 04:44:43;;;;;;;14.97;13.67;;;20.30;99.90;;;;;;5093401;28;20964;-59
2022/08/16 04:47:10;;;;;;;15.30;14.00;;;20.40;99.90;;;;;;5093506;28;20849;-58
2022/08/16 04:49:37;;;;;;;16.10;14.80;;;20.50;99.90;;;;;;5093632;28;20456;-59
2022/08/16 04:52:05;;;;;;;16.57;15.13;;;20.50;99.90;;;;;;5093521;28;20538;-59
2022/08/16 04:54:31;;;;;;;16.20;14.60;;;20.60;99.90;;;;;;5093329;28;20533;-59
2022/08/16 04:56:58;;;;;;;18.27;16.33;;;20.60;99.90;;;;;;5093315;28;20574;-59
2022/08/16 04:59:24;;;;;;;18.13;16.33;;;20.30;99.90;;;;;;5093181;28;20453;-58
2022/08/16 05:01:55;;;;;;;19.50;17.70;;;20.00;99.90;;;;;;5093399;28;20447;-59
2022/08/16 05:04:22;;;;;;;19.57;17.53;;;20.00;99.90;;;;;;5093591;28;20512;-58
2022/08/16 05:06:50;;;;;;;20.40;18.50;;;20.10;99.90;;;;;;5093197;28;20450;-59
2022/08/16 05:09:17;;;;;;;17.97;16.20;;;20.00;99.90;;;;;;5093197;28;20450;-59
2022/08/16 05:11:44;;;;;;;21.37;19.47;;;20.10;99.90;;;;;;5093077;28;20453;-60
2022/08/16 05:14:11;;;;;;;21.20;19.27;;;20.40;99.90;;;;;;5093317;28;20453;-58
2022/08/16 05:16:38;;;;;;;21.10;19.07;;;20.50;99.90;;;;;;5093114;28;20482;-59
2022/08/16 05:19:05;;;;;;;21.17;19.37;;;20.60;99.90;;;;;;5093114;28;20510;-59
2022/08/16 05:21:34;;;;;;;21.50;19.30;;;20.80;99.90;;;;;;5093083;28;20806;-59
2022/08/16 05:24:02;;;;;;;22.23;20.33;;;20.90;99.90;;;;;;5092989;28;20530;-59
2022/08/16 05:26:30;;;;;;;21.13;19.03;;;21.10;99.90;;;;;;5092817;28;20447;-59
2022/08/16 05:28:58;;;;;;;25.27;22.77;;;21.30;99.90;;;;;;5093126;28;20542;-59
2022/08/16 05:31:25;;;;;;;25.13;22.73;;;21.10;99.90;;;;;;5092834;28;20541;-59
2022/08/16 05:33:52;;;;;;;23.57;21.33;;;20.90;99.90;;;;;;5092828;28;20549;-58
2022/08/16 05:36:19;;;;;;;24.57;22.10;;;20.60;99.90;;;;;;5092759;28;20474;-59
2022/08/16 05:38:46;;;;;;;24.03;21.83;;;20.70;99.90;;;;;;5096190;28;20801;-58
2022/08/16 05:41:14;;;;;;;24.10;21.90;;;20.90;99.90;;;;;;5096935;28;20443;-59
2022/08/16 05:43:40;;;;;;;24.83;22.50;;;21.00;99.90;;;;;;5097126;28;20434;-59
2022/08/16 05:46:07;;;;;;;23.40;21.20;;;21.10;99.90;;;;;;5097048;28;20859;-60
2022/08/16 05:48:33;;;;;;;24.57;22.07;;;21.30;99.90;;;;;;5096617;28;20509;-59
2022/08/16 05:51:00;;;;;;;23.13;20.80;;;21.60;99.90;;;;;;5097029;28;20780;-59
2022/08/16 05:53:26;;;;;;;24.07;21.93;;;21.80;99.90;;;;;;5096596;28;20450;-59
2022/08/16 05:55:53;;;;;;;22.20;20.10;;;21.90;99.90;;;;;;5096782;28;20442;-59
2022/08/16 05:58:21;;;;;;;24.07;21.97;;;22.10;99.90;;;;;;5096623;28;20482;-59
2022/08/16 06:00:47;;;;;;;23.33;21.13;;;22.30;99.90;;;;;;5096697;28;20537;-59
2022/08/16 06:03:14;;;;;;;22.27;20.17;;;22.40;99.90;;;;;;5096560;28;20545;-58
2022/08/16 06:05:40;;;;;;;22.27;20.27;;;22.60;99.90;;;;;;5096470;28;20537;-59
2022/08/16 06:08:07;;;;;;;20.70;18.50;;;22.70;99.90;;;;;;5096378;28;20534;-59
2022/08/16 06:10:33;;;;;;;22.40;20.30;;;22.90;99.90;;;;;;5096618;28;20448;-59
2022/08/16 06:13:00;;;;;;;23.63;21.40;;;22.70;99.90;;;;;;5096258;28;20976;-59
2022/08/16 06:15:28;;;;;;;22.57;20.60;;;22.60;99.90;;;;;;5096490;28;20448;-59
2022/08/16 06:17:54;;;;;;;21.33;19.43;;;22.60;99.90;;;;;;5096168;28;20577;-59
2022/08/16 06:20:24;;;;;;;21.10;19.30;;;22.70;99.90;;;;;;5096207;28;20960;-59
2022/08/16 06:22:54;;;;;;;19.33;17.63;;;22.80;99.90;;;;;;5096107;28;20504;-59
2022/08/16 06:25:21;;;;;;;22.43;20.53;;;22.90;99.90;;;;;;5096386;28;20504;-59
2022/08/16 06:27:47;;;;;;;20.37;18.70;;;22.90;99.90;;;;;;5096266;28;20442;-59
2022/08/16 06:30:14;;;;;;;19.77;18.03;;;22.90;99.90;;;;;;5096146;28;20463;-59
2022/08/16 06:32:42;;;;;;;20.60;18.60;;;23.00;99.90;;;;;;5095912;28;21004;-59
2022/08/16 06:35:10;;;;;;;21.60;19.50;;;23.20;99.90;;;;;;5095901;28;21020;-59
2022/08/16 06:37:39;;;;;;;22.63;20.80;;;23.10;99.90;;;;;;5096107;28;20485;-59
2022/08/16 06:40:07;;;;;;;21.40;19.70;;;23.10;99.90;;;;;;5095998;28;20450;-59
2022/08/16 06:42:34;;;;;;;20.97;19.17;;;23.30;99.90;;;;;;5095838;28;20452;-58
2022/08/16 06:45:00;;;;;;;19.93;18.07;;;23.30;99.90;;;;;;5095779;28;20969;-59
2022/08/16 06:47:27;;;;;;;17.37;15.87;;;23.40;99.90;;;;;;5095501;28;20506;-59
2022/08/16 06:49:54;;;;;;;15.20;13.77;;;23.60;99.90;;;;;;5095372;28;20545;-59
2022/08/16 06:52:21;;;;;;;19.83;18.10;;;23.70;99.90;;;;;;5095756;28;20450;-59
2022/08/16 06:54:48;;;;;;;16.57;14.87;;;23.90;99.90;;;;;;5095606;28;20459;-59
2022/08/16 06:57:14;;;;;;;15.53;14.23;;;23.90;99.90;;;;;;5095456;28;20474;-59
2022/08/16 06:59:41;;;;;;;18.40;16.50;;;24.00;99.90;;;;;;5095396;28;20950;-59
2022/08/16 07:02:08;;;;;;;14.53;13.33;;;24.20;99.90;;;;;;5095312;28;20817;-59
2022/08/16 07:04:34;;;;;;;12.73;11.80;;;24.20;99.90;;;;;;5095329;28;20457;-59
2022/08/16 07:07:04;;;;;;;14.23;12.90;;;24.30;99.90;;;;;;5095608;28;20435;-59
2022/08/16 07:09:30;;;;;;;13.90;12.70;;;24.30;99.90;;;;;;5095464;28;20550;-59
2022/08/16 07:11:57;;;;;;;15.43;14.13;;;24.40;99.90;;;;;;5095126;28;20975;-59
2022/08/16 07:14:23;;;;;;;14.77;13.47;;;24.50;99.90;;;;;;5095646;28;20453;-59
2022/08/16 07:16:50;;;;;;;15.00;13.80;;;24.50;99.90;;;;;;5094950;28;20913;-59
2022/08/16 07:19:16;;;;;;;14.17;13.13;;;24.60;99.90;;;;;;5095016;28;20446;-59
2022/08/16 07:21:43;;;;;;;15.37;14.20;;;24.70;99.90;;;;;;5095303;28;20456;-59
2022/08/16 07:24:12;;;;;;;15.80;14.20;;;24.50;99.90;;;;;;5095051;28;20450;-59
2022/08/16 07:26:38;;;;;;;15.77;14.37;;;24.30;99.90;;;;;;5094933;28;20541;-59
2022/08/16 07:29:05;;;;;;;16.30;14.90;;;24.30;99.90;;;;;;5095002;28;20537;-59
2022/08/16 07:31:32;;;;;;;14.60;13.60;;;24.20;99.90;;;;;;5094738;28;20926;-59
2022/08/16 07:33:58;;;;;;;15.70;14.40;;;24.40;99.90;;;;;;5095194;28;20489;-59
2022/08/16 07:36:25;;;;;;;19.97;18.03;;;24.30;99.90;;;;;;5094785;28;20457;-59
2022/08/16 07:38:52;;;;;;;16.97;15.20;;;24.30;99.90;;;;;;5094818;28;20845;-59
2022/08/16 07:41:20;;;;;;;15.33;14.03;;;24.20;99.90;;;;;;5094835;28;20446;-59
2022/08/16 07:43:47;;;;;;;15.00;13.60;;;24.40;99.90;;;;;;5094692;28;20503;-57
2022/08/16 07:46:14;;;;;;;15.33;13.93;;;24.40;99.90;;;;;;5094466;28;20803;-57
2022/08/16 07:48:40;;;;;;;16.23;14.83;;;24.40;99.90;;;;;;5094440;28;20470;-60
2022/08/16 07:51:07;;;;;;;15.33;14.13;;;24.70;99.90;;;;;;5094659;28;20540;-60
2022/08/16 07:53:34;;;;;;;16.00;14.60;;;24.70;99.90;;;;;;5094431;28;20894;-57
2022/08/16 07:56:00;;;;;;;15.53;14.40;;;24.60;99.90;;;;;;5094260;28;20447;-58
2022/08/16 07:58:29;;;;;;;14.10;13.00;;;24.90;99.90;;;;;;5094081;28;20573;-58
2022/08/16 08:00:56;;;;;;;15.60;14.40;;;25.20;99.90;;;;;;5093715;28;20445;-57
2022/08/16 08:03:23;;;;;;;16.10;14.70;;;25.00;99.90;;;;;;5094050;28;20996;-58
2022/08/16 08:05:50;;;;;;;16.93;15.50;;;24.90;99.90;;;;;;5094207;28;20779;-57
2022/08/16 08:08:16;;;;;;;14.53;13.13;;;25.10;99.90;;;;;;5094196;28;20443;-60
2022/08/16 08:10:43;;;;;;;15.57;14.17;;;25.30;99.90;;;;;;5094149;28;20443;-58
2022/08/16 08:13:09;;;;;;;15.83;14.43;;;25.30;99.90;;;;;;5093997;28;20446;-58
2022/08/16 08:15:37;;;;;;;14.37;13.17;;;25.20;99.90;;;;;;5094139;28;20443;-58
2022/08/16 08:18:04;;;;;;;13.77;12.70;;;25.30;99.90;;;;;;5094032;28;21042;-58
2022/08/16 08:20:30;;;;;;;13.40;12.30;;;25.50;99.90;;;;;;5094021;28;20442;-58
2022/08/16 08:22:58;;;;;;;13.80;12.60;;;25.60;99.90;;;;;;5093989;28;20537;-58
2022/08/16 08:25:25;;;;;;;13.20;12.00;;;25.60;99.90;;;;;;5093791;28;20503;-58
2022/08/16 08:27:52;;;;;;;13.10;11.60;;;25.50;99.90;;;;;;5093642;28;20645;-58
2022/08/16 08:30:19;;;;;;;11.20;10.30;;;25.60;99.90;;;;;;5093826;28;20549;-58
2022/08/16 08:32:48;;;;;;;12.20;11.00;;;25.60;99.90;;;;;;5093711;28;20442;-58
2022/08/16 08:35:15;;;;;;;13.20;11.90;;;25.70;99.90;;;;;;5093747;28;20439;-58
2022/08/16 08:37:41;;;;;;;12.57;11.57;;;25.70;99.90;;;;;;5093508;28;20561;-58
2022/08/16 08:40:10;;;;;;;12.40;11.40;;;25.70;99.90;;;;;;5093421;28;20500;-58
2022/08/16 08:42:37;;;;;;;10.93;10.13;;;25.80;99.90;;;;;;5093311;28;20449;-58
2022/08/16 08:45:04;;;;;;;10.57;9.77;;;25.90;99.90;;;;;;5093565;28;20529;-58
2022/08/16 08:47:31;;;;;;;10.00;9.20;;;26.00;99.90;;;;;;5093355;28;20474;-58
2022/08/16 08:49:59;;;;;;;11.17;10.40;;;25.90;99.90;;;;;;5093482;28;20442;-58
2022/08/16 08:52:26;;;;;;;11.80;10.90;;;25.90;99.90;;;;;;5093228;28;20473;-58
2022/08/16 08:54:53;;;;;;;10.43;9.53;;;25.90;99.90;;;;;;5093195;28;20453;-58
2022/08/16 08:57:20;;;;;;;9.73;9.03;;;26.00;99.90;;;;;;5093352;28;20488;-58
2022/08/16 08:59:46;;;;;;;9.63;8.97;;;26.30;99.90;;;;;;5093312;28;20446;-58
2022/08/16 09:02:15;;;;;;;9.10;8.40;;;26.50;99.90;;;;;;5093196;28;20450;-58
2022/08/16 09:04:42;;;;;;;10.93;10.03;;;26.70;99.90;;;;;;5093177;28;20942;-58
2022/08/16 09:07:10;;;;;;;10.77;9.60;;;26.90;99.90;;;;;;5093168;28;20478;-58
2022/08/16 09:09:36;;;;;;;14.30;13.30;;;26.90;99.90;;;;;;5092851;28;20454;-58
2022/08/16 09:12:03;;;;;;;9.70;9.10;;;27.10;99.90;;;;;;5093035;28;20440;-58
2022/08/16 09:14:31;;;;;;;9.33;8.63;;;27.20;99.90;;;;;;5093072;28;20442;-58
2022/08/16 09:16:57;;;;;;;9.50;8.80;;;27.20;99.90;;;;;;5092938;28;20442;-58
2022/08/16 09:19:24;;;;;;;8.93;8.30;;;27.20;99.90;;;;;;5092879;28;20857;-58
2022/08/16 09:21:50;;;;;;;8.00;7.40;;;27.30;99.90;;;;;;5092765;28;20493;-58
2022/08/16 09:24:18;;;;;;;8.37;7.77;;;27.30;99.90;;;;;;5093036;28;20512;-58
2022/08/16 09:26:45;;;;;;;7.80;7.20;;;27.30;99.90;;;;;;5093644;28;20537;-58
2022/08/16 09:29:12;;;;;;;7.57;7.13;;;27.50;99.90;;;;;;5092929;28;20446;-58
2022/08/16 09:31:39;;;;;;;7.47;6.87;;;27.40;99.90;;;;;;5092934;28;20457;-58
2022/08/16 09:34:05;;;;;;;8.90;8.17;;;27.40;99.90;;;;;;5092795;28;20446;-58
2022/08/16 09:36:32;;;;;;;8.40;7.80;;;27.50;99.90;;;;;;5092607;28;20485;-58
2022/08/16 09:38:58;;;;;;;8.30;7.80;;;27.70;99.90;;;;;;5092922;28;20833;-58
2022/08/16 09:41:27;;;;;;;7.97;7.37;;;27.90;99.90;;;;;;5092634;28;20500;-58
2022/08/16 09:43:53;;;;;;;7.47;7.07;;;28.10;99.90;;;;;;5092842;28;20453;-58
2022/08/16 09:46:22;;;;;;;7.67;7.17;;;28.00;99.90;;;;;;5092556;28;20450;-58
2022/08/16 09:48:51;;;;;;;7.80;7.20;;;27.90;99.90;;;;;;5092306;28;20485;-59
2022/08/16 09:51:18;;;;;;;7.87;7.37;;;27.50;99.90;;;;;;5092755;28;20857;-58
2022/08/16 09:53:46;;;;;;;8.10;7.60;;;27.80;99.90;;;;;;5092614;28;20530;-58
2022/08/16 09:56:24;;;;;;;8.17;7.67;;;28.00;99.90;;;;;;5092752;28;20446;-58
2022/08/16 09:58:51;;;;;;;9.60;8.90;;;28.00;99.90;;;;;;5092543;28;20573;-59
2022/08/16 10:01:18;;;;;;;9.70;9.00;;;27.90;99.90;;;;;;5092471;28;20484;-58
2022/08/16 10:03:44;;;;;;;10.50;9.80;;;28.00;99.90;;;;;;5092442;28;20953;-58
2022/08/16 10:06:11;;;;;;;9.93;9.17;;;27.80;99.90;;;;;;5092632;28;20446;-59
2022/08/16 10:08:37;;;;;;;10.93;10.03;;;28.20;99.90;;;;;;5092590;28;20478;-58
2022/08/16 10:13:48;;;;;;;10.23;9.23;;;27.90;99.90;;;;;;5092438;28;20905;-59
2022/08/16 10:16:16;;;;;;;10.70;9.83;;;28.20;99.90;;;;;;5092366;28;20443;-59
2022/08/16 10:18:42;;;;;;;10.40;9.70;;;28.40;99.90;;;;;;5092569;28;20482;-59
2022/08/16 10:21:09;;;;;;;9.77;8.97;;;28.50;99.90;;;;;;5092292;28;20453;-59
2022/08/16 10:23:36;;;;;;;9.40;8.80;;;28.60;99.90;;;;;;5093587;28;20537;-59
2022/08/16 10:26:02;;;;;;;10.90;10.00;;;28.80;99.90;;;;;;5096101;28;20453;-59
2022/08/16 10:28:30;;;;;;;9.67;9.07;;;28.90;99.90;;;;;;5095970;28;20446;-59
2022/08/16 10:30:58;;;;;;;11.30;10.23;;;28.80;99.90;;;;;;5096167;28;20443;-59
2022/08/16 10:33:27;;;;;;;9.60;8.80;;;29.00;99.90;;;;;;5096017;28;20460;-59
2022/08/16 10:35:53;;;;;;;11.00;9.93;;;28.60;99.90;;;;;;5095988;28;20472;-59
2022/08/16 10:38:20;;;;;;;8.57;7.97;;;29.00;99.90;;;;;;5095714;28;20523;-59
2022/08/16 10:40:46;;;;;;;9.77;8.83;;;29.40;99.90;;;;;;5095885;28;20533;-59
2022/08/16 10:43:13;;;;;;;10.00;9.17;;;29.30;99.90;;;;;;5095623;28;20533;-59
2022/08/16 10:45:40;;;;;;;9.53;8.63;;;29.50;99.90;;;;;;5095817;28;20452;-63
2022/08/16 10:48:09;;;;;;;8.73;8.20;;;29.50;99.90;;;;;;5095633;28;20861;-59
2022/08/16 10:50:38;;;;;;;10.50;8.50;;;29.70;99.90;;;;;;5095625;28;20450;-59
2022/08/16 10:53:05;;;;;;;9.20;8.20;;;30.00;99.90;;;;;;5095549;28;20446;-59
2022/08/16 10:55:32;;;;;;;11.50;10.40;;;30.30;99.90;;;;;;5095511;28;20476;-59
2022/08/16 10:58:01;;;;;;;10.57;9.67;;;30.00;99.90;;;;;;5095677;28;20565;-59
2022/08/16 11:00:27;;;;;;;9.80;9.00;;;29.80;99.90;;;;;;5095712;28;20453;-60
2022/08/16 11:02:54;;;;;;;7.90;7.40;;;29.60;99.90;;;;;;5095487;28;20450;-59
2022/08/16 11:05:21;;;;;;;7.93;7.23;;;29.90;99.90;;;;;;5095498;28;20452;-59
2022/08/16 11:07:50;;;;;;;7.40;6.90;;;29.90;99.90;;;;;;5095539;28;20504;-59
2022/08/16 11:10:19;;;;;;;9.23;8.63;;;30.00;99.90;;;;;;5095418;28;20453;-59
2022/08/16 11:12:46;;;;;;;9.33;8.70;;;29.80;99.90;;;;;;5095128;28;20946;-59
2022/08/16 11:15:12;;;;;;;8.50;7.80;;;30.00;99.90;;;;;;5095310;28;20451;-59
2022/08/16 11:17:40;;;;;;;9.30;8.30;;;30.10;99.90;;;;;;5095232;28;20534;-59
2022/08/16 11:20:16;;;;;;;8.63;8.00;;;30.10;99.90;;;;;;5095005;28;20481;-59
2022/08/16 11:22:43;;;;;;;8.20;7.60;;;29.70;99.90;;;;;;5095070;28;20870;-59
2022/08/16 11:25:12;;;;;;;8.90;8.30;;;29.40;99.90;;;;;;5095256;28;20897;-59
2022/08/16 11:27:38;;;;;;;8.17;7.17;;;29.40;99.90;;;;;;5094862;28;20961;-59
2022/08/16 11:30:08;;;;;;;7.53;6.90;;;29.10;99.90;;;;;;5094905;28;20489;-59
2022/08/16 11:32:35;;;;;;;7.90;7.10;;;29.40;99.90;;;;;;5094914;28;20478;-59
2022/08/16 11:35:05;;;;;;;6.57;5.97;;;29.40;99.90;;;;;;5093679;28;20864;-59
2022/08/16 11:37:33;;;;;;;6.80;6.37;;;29.60;99.90;;;;;;5094753;28;20802;-59
2022/08/16 11:39:59;;;;;;;7.60;7.10;;;30.00;99.90;;;;;;5094751;28;20493;-59
2022/08/16 11:42:28;;;;;;;7.43;6.83;;;29.70;99.90;;;;;;5094544;28;20535;-59
2022/08/16 11:44:54;;;;;;;7.10;6.70;;;29.80;99.90;;;;;;5094541;28;20446;-59
2022/08/16 11:47:21;;;;;;;6.73;6.23;;;29.90;99.90;;;;;;5094353;28;20476;-59
2022/08/16 11:49:47;;;;;;;6.90;6.40;;;30.30;99.90;;;;;;5094432;28;20891;-59
2022/08/16 11:52:16;;;;;;;6.80;6.30;;;30.60;99.90;;;;;;5094491;28;20443;-59
2022/08/16 11:54:42;;;;;;;8.47;6.37;;;30.90;99.90;;;;;;5094482;28;20446;-59
2022/08/16 11:57:10;;;;;;;6.67;5.77;;;31.10;99.90;;;;;;5094467;28;20449;-59
2022/08/16 11:59:39;;;;;;;6.97;6.27;;;31.10;99.90;;;;;;5094188;28;20478;-59
2022/08/16 12:02:07;;;;;;;6.77;6.20;;;31.20;99.90;;;;;;5094249;28;20435;-59
2022/08/16 12:04:34;;;;;;;6.70;6.27;;;31.40;99.90;;;;;;5094436;28;20535;-59
2022/08/16 12:07:01;;;;;;;6.87;6.27;;;31.60;99.90;;;;;;5094347;28;20450;-60
2022/08/16 12:09:29;;;;;;;8.30;6.70;;;31.60;99.90;;;;;;5094330;28;20446;-59
2022/08/16 12:11:55;;;;;;;7.70;7.10;;;31.50;99.90;;;;;;5094127;28;20549;-59
2022/08/16 12:14:22;;;;;;;6.50;5.77;;;31.70;99.90;;;;;;5094006;28;21020;-59
2022/08/16 12:16:51;;;;;;;6.43;6.00;;;32.10;99.90;;;;;;5093927;28;20850;-59
2022/08/16 12:19:18;;;;;;;6.60;6.10;;;32.20;99.90;;;;;;5093816;28;20478;-59
2022/08/16 12:21:45;;;;;;;7.43;6.73;;;32.00;99.90;;;;;;5093943;28;20975;-60
2022/08/16 12:24:12;;;;;;;7.63;6.93;;;31.90;99.90;;;;;;5093915;28;20838;-59
2022/08/16 12:26:38;;;;;;;7.30;6.70;;;31.80;99.90;;;;;;5093888;28;20541;-60
2022/08/16 12:29:05;;;;;;;6.20;5.80;;;31.20;99.90;;;;;;5093789;28;20454;-59
2022/08/16 12:31:32;;;;;;;6.67;6.07;;;31.20;99.90;;;;;;5093602;28;20455;-60
2022/08/16 12:33:59;;;;;;;6.10;5.70;;;30.80;99.90;;;;;;5093759;28;20523;-59
2022/08/16 12:36:26;;;;;;;5.57;5.13;;;31.20;99.90;;;;;;5093670;28;20447;-59